sensor_id;sensor_type;location;lat;lon;timestamp;temperature;humidity
31113;DHT22;17763;48.730;9.136;2023-04-24T00:00:55;10.10;99.90
31113;DHT22;17763;48.730;9.136;2023-04-24T00:03:24;10.20;99.90
31113;DHT22;17763;48.730;9.136;2023-04-24T00:05:50;10.20;99.90
31113;DHT22;17763;48.730;9.136;2023-04-24T00:08:17;10.20;99.90
31113;DHT22;17763;48.730;9.136;2023-04-24T00:10:43;10.20;99.90
31113;DHT22;17763;48.730;9.136;2023-04-24T00:13:08;10.20;99.90
31113;DHT22;17763;48.730;9.136;2023-04-24T00:15:34;10.10;99.90
31113;DHT22;17763;48.730;9.136;2023-04-24T00:18:00;10.20;99.90
31113;DHT22;17763;48.730;9.136;2023-04-24T00:20:29;10.20;99.90
31113;DHT22;17763;48.730;9.136;2023-04-24T00:23:12;10.20;99.90
31113;DHT22;17763;48.730;9.136;2023-04-24T00:25:38;10.20;99.90
31113;DHT22;17763;48.730;9.136;2023-04-24T00:28:04;10.20;99.90
31113;DHT22;17763;48.730;9.136;2023-04-24T00:30:29;10.20;99.90
31113;DHT22;17763;48.730;9.136;2023-04-24T00:32:55;10.20;99.90
31113;DHT22;17763;48.730;9.136;2023-04-24T00:35:20;10.20;99.90
31113;DHT22;17763;48.730;9.136;2023-04-24T00:37:46;10.30;99.90
31113;DHT22;17763;48.730;9.136;2023-04-24T00:40:12;10.30;99.90
31113;DHT22;17763;48.730;9.136;2023-04-24T00:42:38;10.30;99.90
31113;DHT22;17763;48.730;9.136;2023-04-24T00:45:06;10.30;99.90
31113;DHT22;17763;48.730;9.136;2023-04-24T00:47:32;10.30;99.90
31113;DHT22;17763;48.730;9.136;2023-04-24T00:49:58;10.30;99.90
31113;DHT22;17763;48.730;9.136;2023-04-24T00:52:25;10.40;99.90
31113;DHT22;17763;48.730;9.136;2023-04-24T00:54:51;10.40;99.90
31113;DHT22;17763;48.730;9.136;2023-04-24T00:57:17;10.30;99.90
31113;DHT22;17763;48.730;9.136;2023-04-24T00:59:42;10.40;99.90
31113;DHT22;17763;48.730;9.136;2023-04-24T01:02:09;10.40;99.90
31113;DHT22;17763;48.730;9.136;2023-04-24T01:04:35;10.40;99.90
31113;DHT22;17763;48.730;9.136;2023-04-24T01:07:01;10.40;99.90
31113;DHT22;17763;48.730;9.136;2023-04-24T01:09:35;10.40;99.90
31113;DHT22;17763;48.730;9.136;2023-04-24T01:12:01;10.40;99.90
31113;DHT22;17763;48.730;9.136;2023-04-24T01:14:27;10.50;99.90
31113;DHT22;17763;48.730;9.136;2023-04-24T01:16:52;10.50;99.90
31113;DHT22;17763;48.730;9.136;2023-04-24T01:19:18;10.50;99.90
31113;DHT22;17763;48.730;9.136;2023-04-24T01:21:44;10.50;99.90
31113;DHT22;17763;48.730;9.136;2023-04-24T01:24:12;10.50;99.90
31113;DHT22;17763;48.730;9.136;2023-04-24T01:26:38;10.50;99.90
31113;DHT22;17763;48.730;9.136;2023-04-24T01:29:03;10.50;99.90
31113;DHT22;17763;48.730;9.136;2023-04-24T01:31:29;10.50;99.90
31113;DHT22;17763;48.730;9.136;2023-04-24T01:33:55;10.50;99.90
31113;DHT22;17763;48.730;9.136;2023-04-24T01:36:21;10.50;99.90
31113;DHT22;17763;48.730;9.136;2023-04-24T01:38:47;10.40;99.90
31113;DHT22;17763;48.730;9.136;2023-04-24T01:41:12;10.40;99.90
31113;DHT22;17763;48.730;9.136;2023-04-24T01:43:38;10.40;99.90
31113;DHT22;17763;48.730;9.136;2023-04-24T01:46:04;10.40;99.90
31113;DHT22;17763;48.730;9.136;2023-04-24T01:48:29;10.40;99.90
31113;DHT22;17763;48.730;9.136;2023-04-24T01:50:56;10.40;99.90
31113;DHT22;17763;48.730;9.136;2023-04-24T01:53:22;10.40;99.90
31113;DHT22;17763;48.730;9.136;2023-04-24T01:55:47;10.40;99.90
31113;DHT22;17763;48.730;9.136;2023-04-24T01:58:14;10.30;99.90
31113;DHT22;17763;48.730;9.136;2023-04-24T02:00:40;10.30;99.90
31113;DHT22;17763;48.730;9.136;2023-04-24T02:03:06;10.30;99.90
31113;DHT22;17763;48.730;9.136;2023-04-24T02:05:32;10.30;99.90
31113;DHT22;17763;48.730;9.136;2023-04-24T02:07:58;10.30;99.90
31113;DHT22;17763;48.730;9.136;2023-04-24T02:10:23;10.30;99.90
31113;DHT22;17763;48.730;9.136;2023-04-24T02:12:50;10.30;99.90
31113;DHT22;17763;48.730;9.136;2023-04-24T02:15:16;10.30;99.90
31113;DHT22;17763;48.730;9.136;2023-04-24T02:17:43;10.30;99.90
31113;DHT22;17763;48.730;9.136;2023-04-24T02:20:08;10.30;99.90
31113;DHT22;17763;48.730;9.136;2023-04-24T02:22:34;10.20;99.90
31113;DHT22;17763;48.730;9.136;2023-04-24T02:25:00;10.20;99.90
31113;DHT22;17763;48.730;9.136;2023-04-24T02:27:26;10.20;99.90
31113;DHT22;17763;48.730;9.136;2023-04-24T02:29:54;10.20;99.90
31113;DHT22;17763;48.730;9.136;2023-04-24T02:32:20;10.20;99.90
31113;DHT22;17763;48.730;9.136;2023-04-24T02:34:46;10.20;99.90
31113;DHT22;17763;48.730;9.136;2023-04-24T02:37:11;10.20;99.90
31113;DHT22;17763;48.730;9.136;2023-04-24T02:39:37;10.10;99.90
31113;DHT22;17763;48.730;9.136;2023-04-24T02:42:02;10.10;99.90
31113;DHT22;17763;48.730;9.136;2023-04-24T02:44:28;10.10;99.90
31113;DHT22;17763;48.730;9.136;2023-04-24T02:46:54;10.10;99.90
31113;DHT22;17763;48.730;9.136;2023-04-24T02:49:19;10.10;99.90
31113;DHT22;17763;48.730;9.136;2023-04-24T02:51:45;10.10;99.90
31113;DHT22;17763;48.730;9.136;2023-04-24T02:54:11;10.10;99.90
31113;DHT22;17763;48.730;9.136;2023-04-24T02:56:36;10.10;99.90
31113;DHT22;17763;48.730;9.136;2023-04-24T02:59:02;10.30;99.90
31113;DHT22;17763;48.730;9.136;2023-04-24T03:01:28;10.10;99.90
31113;DHT22;17763;48.730;9.136;2023-04-24T03:03:53;10.10;99.90
31113;DHT22;17763;48.730;9.136;2023-04-24T03:06:19;10.10;99.90
31113;DHT22;17763;48.730;9.136;2023-04-24T03:08:46;10.10;99.90
31113;DHT22;17763;48.730;9.136;2023-04-24T03:11:11;10.10;99.90
31113;DHT22;17763;48.730;9.136;2023-04-24T03:13:37;10.10;99.90
31113;DHT22;17763;48.730;9.136;2023-04-24T03:16:03;10.10;99.90
31113;DHT22;17763;48.730;9.136;2023-04-24T03:18:31;10.00;99.90
31113;DHT22;17763;48.730;9.136;2023-04-24T03:20:56;10.00;99.90
31113;DHT22;17763;48.730;9.136;2023-04-24T03:23:22;9.90;99.90
31113;DHT22;17763;48.730;9.136;2023-04-24T03:25:48;9.90;99.90
31113;DHT22;17763;48.730;9.136;2023-04-24T03:28:13;9.80;99.90
31113;DHT22;17763;48.730;9.136;2023-04-24T03:30:39;9.80;99.90
31113;DHT22;17763;48.730;9.136;2023-04-24T03:33:05;9.80;99.90
31113;DHT22;17763;48.730;9.136;2023-04-24T03:35:30;9.70;99.90
31113;DHT22;17763;48.730;9.136;2023-04-24T03:37:56;9.70;99.90
31113;DHT22;17763;48.730;9.136;2023-04-24T03:40:22;9.70;99.90
31113;DHT22;17763;48.730;9.136;2023-04-24T03:42:50;9.70;99.90
31113;DHT22;17763;48.730;9.136;2023-04-24T03:45:15;9.70;99.90
31113;DHT22;17763;48.730;9.136;2023-04-24T03:47:41;9.70;99.90
31113;DHT22;17763;48.730;9.136;2023-04-24T03:50:07;9.70;99.90
31113;DHT22;17763;48.730;9.136;2023-04-24T03:52:32;9.60;99.90
31113;DHT22;17763;48.730;9.136;2023-04-24T03:54:58;9.60;99.90
31113;DHT22;17763;48.730;9.136;2023-04-24T03:57:24;9.60;99.90
31113;DHT22;17763;48.730;9.136;2023-04-24T03:59:50;9.50;99.90
31113;DHT22;17763;48.730;9.136;2023-04-24T04:02:15;9.50;99.90
31113;DHT22;17763;48.730;9.136;2023-04-24T04:04:41;9.50;99.90
31113;DHT22;17763;48.730;9.136;2023-04-24T04:07:07;9.40;99.90
31113;DHT22;17763;48.730;9.136;2023-04-24T04:09:33;9.40;99.90
31113;DHT22;17763;48.730;9.136;2023-04-24T04:11:59;9.40;99.90
31113;DHT22;17763;48.730;9.136;2023-04-24T04:14:26;9.40;99.90
31113;DHT22;17763;48.730;9.136;2023-04-24T04:16:51;9.40;99.90
31113;DHT22;17763;48.730;9.136;2023-04-24T04:19:17;9.40;99.90
31113;DHT22;17763;48.730;9.136;2023-04-24T04:21:43;9.50;99.90
31113;DHT22;17763;48.730;9.136;2023-04-24T04:24:11;9.50;99.90
31113;DHT22;17763;48.730;9.136;2023-04-24T04:26:37;9.50;99.90
31113;DHT22;17763;48.730;9.136;2023-04-24T04:29:03;9.50;99.90
31113;DHT22;17763;48.730;9.136;2023-04-24T04:31:29;9.50;99.90
31113;DHT22;17763;48.730;9.136;2023-04-24T04:33:55;9.50;99.90
31113;DHT22;17763;48.730;9.136;2023-04-24T04:36:21;9.30;99.90
31113;DHT22;17763;48.730;9.136;2023-04-24T04:38:46;9.10;99.90
31113;DHT22;17763;48.730;9.136;2023-04-24T04:41:12;8.90;99.90
31113;DHT22;17763;48.730;9.136;2023-04-24T04:43:38;8.80;99.90
31113;DHT22;17763;48.730;9.136;2023-04-24T04:46:05;8.70;99.90
31113;DHT22;17763;48.730;9.136;2023-04-24T04:48:33;8.60;99.90
31113;DHT22;17763;48.730;9.136;2023-04-24T04:50:59;8.60;99.90
31113;DHT22;17763;48.730;9.136;2023-04-24T04:53:24;8.50;99.90
31113;DHT22;17763;48.730;9.136;2023-04-24T04:55:51;8.50;99.90
31113;DHT22;17763;48.730;9.136;2023-04-24T04:58:16;8.40;99.90
31113;DHT22;17763;48.730;9.136;2023-04-24T05:00:42;8.40;99.90
31113;DHT22;17763;48.730;9.136;2023-04-24T05:03:08;8.40;99.90
31113;DHT22;17763;48.730;9.136;2023-04-24T05:05:33;8.30;99.90
31113;DHT22;17763;48.730;9.136;2023-04-24T05:07:59;8.40;99.90
31113;DHT22;17763;48.730;9.136;2023-04-24T05:10:25;8.30;99.90
31113;DHT22;17763;48.730;9.136;2023-04-24T05:12:50;8.40;99.90
31113;DHT22;17763;48.730;9.136;2023-04-24T05:15:16;8.40;99.90
31113;DHT22;17763;48.730;9.136;2023-04-24T05:17:42;8.40;99.90
31113;DHT22;17763;48.730;9.136;2023-04-24T05:20:07;8.40;99.90
31113;DHT22;17763;48.730;9.136;2023-04-24T05:22:33;8.40;99.90
31113;DHT22;17763;48.730;9.136;2023-04-24T05:24:59;8.40;99.90
31113;DHT22;17763;48.730;9.136;2023-04-24T05:27:25;8.40;99.90
31113;DHT22;17763;48.730;9.136;2023-04-24T05:29:53;8.40;99.90
31113;DHT22;17763;48.730;9.136;2023-04-24T05:32:18;8.40;99.90
31113;DHT22;17763;48.730;9.136;2023-04-24T05:34:44;8.50;99.90
31113;DHT22;17763;48.730;9.136;2023-04-24T05:37:10;8.50;99.90
31113;DHT22;17763;48.730;9.136;2023-04-24T05:39:36;8.50;99.90
31113;DHT22;17763;48.730;9.136;2023-04-24T05:42:01;8.50;99.90
31113;DHT22;17763;48.730;9.136;2023-04-24T05:44:30;8.50;99.90
31113;DHT22;17763;48.730;9.136;2023-04-24T05:46:58;8.60;99.90
31113;DHT22;17763;48.730;9.136;2023-04-24T05:49:24;8.60;99.90
31113;DHT22;17763;48.730;9.136;2023-04-24T05:51:50;8.70;99.90
31113;DHT22;17763;48.730;9.136;2023-04-24T05:54:18;8.70;99.90
31113;DHT22;17763;48.730;9.136;2023-04-24T05:56:43;8.70;99.90
31113;DHT22;17763;48.730;9.136;2023-04-24T05:59:09;8.70;99.90
31113;DHT22;17763;48.730;9.136;2023-04-24T06:01:34;8.80;99.90
31113;DHT22;17763;48.730;9.136;2023-04-24T06:04:02;8.80;99.90
31113;DHT22;17763;48.730;9.136;2023-04-24T06:06:27;8.70;99.90
31113;DHT22;17763;48.730;9.136;2023-04-24T06:08:54;8.70;99.90
31113;DHT22;17763;48.730;9.136;2023-04-24T06:11:19;8.70;99.90
31113;DHT22;17763;48.730;9.136;2023-04-24T06:13:45;8.70;99.90
31113;DHT22;17763;48.730;9.136;2023-04-24T06:16:11;8.70;99.90
31113;DHT22;17763;48.730;9.136;2023-04-24T06:18:36;8.70;99.90
31113;DHT22;17763;48.730;9.136;2023-04-24T06:21:02;8.80;99.90
31113;DHT22;17763;48.730;9.136;2023-04-24T06:23:28;8.90;99.90
31113;DHT22;17763;48.730;9.136;2023-04-24T06:25:54;9.00;99.90
31113;DHT22;17763;48.730;9.136;2023-04-24T06:28:22;9.00;99.90
31113;DHT22;17763;48.730;9.136;2023-04-24T06:30:48;9.20;99.90
31113;DHT22;17763;48.730;9.136;2023-04-24T06:33:13;9.30;99.90
31113;DHT22;17763;48.730;9.136;2023-04-24T06:35:39;9.40;99.90
31113;DHT22;17763;48.730;9.136;2023-04-24T06:38:05;9.50;99.90
31113;DHT22;17763;48.730;9.136;2023-04-24T06:40:30;9.60;99.90
31113;DHT22;17763;48.730;9.136;2023-04-24T06:42:57;9.70;99.90
31113;DHT22;17763;48.730;9.136;2023-04-24T06:45:23;9.90;99.90
31113;DHT22;17763;48.730;9.136;2023-04-24T06:47:49;10.10;99.90
31113;DHT22;17763;48.730;9.136;2023-04-24T06:50:14;10.20;99.90
31113;DHT22;17763;48.730;9.136;2023-04-24T06:52:43;10.20;99.90
31113;DHT22;17763;48.730;9.136;2023-04-24T06:55:09;10.30;99.90
31113;DHT22;17763;48.730;9.136;2023-04-24T06:57:36;10.30;99.90
31113;DHT22;17763;48.730;9.136;2023-04-24T07:00:02;10.30;99.90
31113;DHT22;17763;48.730;9.136;2023-04-24T07:02:28;10.40;99.90
31113;DHT22;17763;48.730;9.136;2023-04-24T07:04:54;10.40;99.90
31113;DHT22;17763;48.730;9.136;2023-04-24T07:07:19;10.50;99.90
31113;DHT22;17763;48.730;9.136;2023-04-24T07:09:46;10.60;99.90
31113;DHT22;17763;48.730;9.136;2023-04-24T07:12:12;10.70;99.90
31113;DHT22;17763;48.730;9.136;2023-04-24T07:14:38;10.70;99.90
31113;DHT22;17763;48.730;9.136;2023-04-24T07:17:04;10.70;99.90
31113;DHT22;17763;48.730;9.136;2023-04-24T07:19:32;10.60;99.90
31113;DHT22;17763;48.730;9.136;2023-04-24T07:21:58;10.60;99.90
31113;DHT22;17763;48.730;9.136;2023-04-24T07:24:26;10.40;99.90
31113;DHT22;17763;48.730;9.136;2023-04-24T07:26:52;10.30;99.90
31113;DHT22;17763;48.730;9.136;2023-04-24T07:29:18;10.20;99.90
31113;DHT22;17763;48.730;9.136;2023-04-24T07:31:43;10.10;99.90
31113;DHT22;17763;48.730;9.136;2023-04-24T07:34:12;10.10;99.90
31113;DHT22;17763;48.730;9.136;2023-04-24T07:36:38;10.00;99.90
31113;DHT22;17763;48.730;9.136;2023-04-24T07:39:04;10.10;99.90
31113;DHT22;17763;48.730;9.136;2023-04-24T07:41:30;10.10;99.90
31113;DHT22;17763;48.730;9.136;2023-04-24T07:43:55;10.20;99.90
31113;DHT22;17763;48.730;9.136;2023-04-24T07:46:21;10.40;99.90
31113;DHT22;17763;48.730;9.136;2023-04-24T07:48:47;10.70;99.90
31113;DHT22;17763;48.730;9.136;2023-04-24T07:51:14;10.70;99.90
31113;DHT22;17763;48.730;9.136;2023-04-24T07:53:39;10.80;99.90
31113;DHT22;17763;48.730;9.136;2023-04-24T07:56:05;10.80;99.90
31113;DHT22;17763;48.730;9.136;2023-04-24T07:58:33;10.80;99.90
31113;DHT22;17763;48.730;9.136;2023-04-24T08:00:59;10.80;99.90
31113;DHT22;17763;48.730;9.136;2023-04-24T08:03:25;10.70;99.90
31113;DHT22;17763;48.730;9.136;2023-04-24T08:05:50;10.70;99.90
31113;DHT22;17763;48.730;9.136;2023-04-24T08:08:16;10.70;99.90
31113;DHT22;17763;48.730;9.136;2023-04-24T08:10:44;10.50;99.90
31113;DHT22;17763;48.730;9.136;2023-04-24T08:13:10;10.50;99.90
31113;DHT22;17763;48.730;9.136;2023-04-24T08:15:36;10.50;99.90
31113;DHT22;17763;48.730;9.136;2023-04-24T08:18:02;10.40;99.90
31113;DHT22;17763;48.730;9.136;2023-04-24T08:20:28;10.30;99.90
31113;DHT22;17763;48.730;9.136;2023-04-24T08:22:53;10.40;99.90
31113;DHT22;17763;48.730;9.136;2023-04-24T08:25:19;10.40;99.90
31113;DHT22;17763;48.730;9.136;2023-04-24T08:27:48;10.30;99.90
31113;DHT22;17763;48.730;9.136;2023-04-24T08:30:14;10.20;99.90
31113;DHT22;17763;48.730;9.136;2023-04-24T08:32:39;10.20;99.90
31113;DHT22;17763;48.730;9.136;2023-04-24T08:35:05;10.30;99.90
31113;DHT22;17763;48.730;9.136;2023-04-24T08:37:31;10.40;99.90
31113;DHT22;17763;48.730;9.136;2023-04-24T08:39:57;10.40;99.90
31113;DHT22;17763;48.730;9.136;2023-04-24T08:42:23;10.50;99.60
31113;DHT22;17763;48.730;9.136;2023-04-24T08:44:49;10.60;99.90
31113;DHT22;17763;48.730;9.136;2023-04-24T08:47:15;10.70;99.80
31113;DHT22;17763;48.730;9.136;2023-04-24T08:49:41;10.80;99.40
31113;DHT22;17763;48.730;9.136;2023-04-24T08:52:08;10.90;97.90
31113;DHT22;17763;48.730;9.136;2023-04-24T08:54:34;10.80;96.80
31113;DHT22;17763;48.730;9.136;2023-04-24T08:57:00;10.80;98.00
31113;DHT22;17763;48.730;9.136;2023-04-24T08:59:29;10.80;98.20
31113;DHT22;17763;48.730;9.136;2023-04-24T09:01:55;10.80;98.00
31113;DHT22;17763;48.730;9.136;2023-04-24T09:04:22;10.90;98.40
31113;DHT22;17763;48.730;9.136;2023-04-24T09:06:58;10.90;99.30
31113;DHT22;17763;48.730;9.136;2023-04-24T09:09:25;11.00;97.90
31113;DHT22;17763;48.730;9.136;2023-04-24T09:11:54;11.00;98.40
31113;DHT22;17763;48.730;9.136;2023-04-24T09:14:20;11.00;98.00
31113;DHT22;17763;48.730;9.136;2023-04-24T09:16:46;10.90;98.70
31113;DHT22;17763;48.730;9.136;2023-04-24T09:19:12;10.80;98.30
31113;DHT22;17763;48.730;9.136;2023-04-24T09:21:38;10.80;98.20
31113;DHT22;17763;48.730;9.136;2023-04-24T09:24:04;10.80;97.00
31113;DHT22;17763;48.730;9.136;2023-04-24T09:26:30;10.80;97.60
31113;DHT22;17763;48.730;9.136;2023-04-24T09:28:59;10.80;97.90
31113;DHT22;17763;48.730;9.136;2023-04-24T09:31:29;10.70;95.60
31113;DHT22;17763;48.730;9.136;2023-04-24T09:33:55;10.70;95.40
31113;DHT22;17763;48.730;9.136;2023-04-24T09:36:32;10.70;95.20
31113;DHT22;17763;48.730;9.136;2023-04-24T09:39:03;10.90;95.10
31113;DHT22;17763;48.730;9.136;2023-04-24T09:41:29;11.10;92.80
31113;DHT22;17763;48.730;9.136;2023-04-24T09:43:55;11.10;91.40
31113;DHT22;17763;48.730;9.136;2023-04-24T09:46:21;11.20;90.50
31113;DHT22;17763;48.730;9.136;2023-04-24T09:48:47;11.30;90.90
31113;DHT22;17763;48.730;9.136;2023-04-24T09:51:13;11.30;90.80
31113;DHT22;17763;48.730;9.136;2023-04-24T09:53:44;11.20;90.40
31113;DHT22;17763;48.730;9.136;2023-04-24T09:56:10;11.30;91.30
31113;DHT22;17763;48.730;9.136;2023-04-24T09:58:37;11.10;90.80
31113;DHT22;17763;48.730;9.136;2023-04-24T10:01:05;11.00;90.50
31113;DHT22;17763;48.730;9.136;2023-04-24T10:03:31;11.00;90.00
31113;DHT22;17763;48.730;9.136;2023-04-24T10:06:03;11.10;91.20
31113;DHT22;17763;48.730;9.136;2023-04-24T10:08:34;11.10;88.80
31113;DHT22;17763;48.730;9.136;2023-04-24T10:11:00;11.00;88.10
31113;DHT22;17763;48.730;9.136;2023-04-24T10:13:26;10.90;89.70
31113;DHT22;17763;48.730;9.136;2023-04-24T10:15:53;10.90;90.40
31113;DHT22;17763;48.730;9.136;2023-04-24T10:18:21;10.80;87.80
31113;DHT22;17763;48.730;9.136;2023-04-24T10:20:49;10.80;87.90
31113;DHT22;17763;48.730;9.136;2023-04-24T10:23:14;10.80;86.70
31113;DHT22;17763;48.730;9.136;2023-04-24T10:25:40;10.90;87.00
31113;DHT22;17763;48.730;9.136;2023-04-24T10:28:06;10.90;87.80
31113;DHT22;17763;48.730;9.136;2023-04-24T10:30:32;11.10;88.20
31113;DHT22;17763;48.730;9.136;2023-04-24T10:33:01;11.30;87.40
31113;DHT22;17763;48.730;9.136;2023-04-24T10:35:26;11.30;84.80
31113;DHT22;17763;48.730;9.136;2023-04-24T10:37:59;11.30;85.40
31113;DHT22;17763;48.730;9.136;2023-04-24T10:40:29;11.30;84.00
31113;DHT22;17763;48.730;9.136;2023-04-24T10:42:55;11.30;86.80
31113;DHT22;17763;48.730;9.136;2023-04-24T10:45:22;11.40;84.90
31113;DHT22;17763;48.730;9.136;2023-04-24T10:47:51;11.30;84.70
31113;DHT22;17763;48.730;9.136;2023-04-24T10:50:17;11.10;83.30
31113;DHT22;17763;48.730;9.136;2023-04-24T10:52:46;10.90;84.80
31113;DHT22;17763;48.730;9.136;2023-04-24T10:55:13;10.80;85.70
31113;DHT22;17763;48.730;9.136;2023-04-24T10:57:39;10.80;87.60
31113;DHT22;17763;48.730;9.136;2023-04-24T11:00:21;10.80;87.40
31113;DHT22;17763;48.730;9.136;2023-04-24T11:02:47;10.70;87.30
31113;DHT22;17763;48.730;9.136;2023-04-24T11:05:18;10.80;89.00
31113;DHT22;17763;48.730;9.136;2023-04-24T11:08:27;10.70;87.90
31113;DHT22;17763;48.730;9.136;2023-04-24T11:10:33;10.60;88.70
31113;DHT22;17763;48.730;9.136;2023-04-24T11:12:58;10.50;90.30
31113;DHT22;17763;48.730;9.136;2023-04-24T11:15:27;10.50;90.40
31113;DHT22;17763;48.730;9.136;2023-04-24T11:17:55;10.50;90.10
31113;DHT22;17763;48.730;9.136;2023-04-24T11:20:22;10.40;90.10
31113;DHT22;17763;48.730;9.136;2023-04-24T11:22:48;10.40;91.00
31113;DHT22;17763;48.730;9.136;2023-04-24T11:25:22;10.50;91.10
31113;DHT22;17763;48.730;9.136;2023-04-24T11:27:48;10.60;90.00
31113;DHT22;17763;48.730;9.136;2023-04-24T11:30:19;10.70;89.70
31113;DHT22;17763;48.730;9.136;2023-04-24T11:32:47;10.80;87.50
31113;DHT22;17763;48.730;9.136;2023-04-24T11:35:14;11.00;89.50
31113;DHT22;17763;48.730;9.136;2023-04-24T11:37:42;11.10;89.80
31113;DHT22;17763;48.730;9.136;2023-04-24T11:40:09;11.20;89.20
31113;DHT22;17763;48.730;9.136;2023-04-24T11:42:35;11.30;89.40
31113;DHT22;17763;48.730;9.136;2023-04-24T11:45:01;11.30;88.50
31113;DHT22;17763;48.730;9.136;2023-04-24T11:47:28;11.00;90.10
31113;DHT22;17763;48.730;9.136;2023-04-24T11:49:57;10.90;90.10
31113;DHT22;17763;48.730;9.136;2023-04-24T11:52:23;10.60;90.50
31113;DHT22;17763;48.730;9.136;2023-04-24T11:54:49;10.70;90.80
31113;DHT22;17763;48.730;9.136;2023-04-24T11:57:15;10.70;90.40
31113;DHT22;17763;48.730;9.136;2023-04-24T11:59:41;10.80;89.60
31113;DHT22;17763;48.730;9.136;2023-04-24T12:02:08;11.00;90.00
31113;DHT22;17763;48.730;9.136;2023-04-24T12:04:40;11.10;88.60
31113;DHT22;17763;48.730;9.136;2023-04-24T12:07:06;11.20;89.30
31113;DHT22;17763;48.730;9.136;2023-04-24T12:12:26;11.10;86.10
31113;DHT22;17763;48.730;9.136;2023-04-24T12:14:53;10.80;90.20
31113;DHT22;17763;48.730;9.136;2023-04-24T12:17:23;10.70;89.70
31113;DHT22;17763;48.730;9.136;2023-04-24T12:19:49;10.60;90.90
31113;DHT22;17763;48.730;9.136;2023-04-24T12:22:16;10.50;91.90
31113;DHT22;17763;48.730;9.136;2023-04-24T12:27:38;10.50;91.00
31113;DHT22;17763;48.730;9.136;2023-04-24T12:30:05;10.50;88.70
31113;DHT22;17763;48.730;9.136;2023-04-24T12:32:33;10.50;90.20
31113;DHT22;17763;48.730;9.136;2023-04-24T12:34:58;10.60;88.90
31113;DHT22;17763;48.730;9.136;2023-04-24T12:37:25;10.70;90.10
31113;DHT22;17763;48.730;9.136;2023-04-24T12:40:07;10.70;89.20
31113;DHT22;17763;48.730;9.136;2023-04-24T12:42:36;10.70;89.70
31113;DHT22;17763;48.730;9.136;2023-04-24T12:45:06;10.80;89.70
31113;DHT22;17763;48.730;9.136;2023-04-24T12:47:34;10.90;90.00
31113;DHT22;17763;48.730;9.136;2023-04-24T12:50:02;10.90;90.30
31113;DHT22;17763;48.730;9.136;2023-04-24T12:52:32;10.80;91.10
31113;DHT22;17763;48.730;9.136;2023-04-24T12:54:58;10.60;91.40
31113;DHT22;17763;48.730;9.136;2023-04-24T12:57:27;10.40;91.70
31113;DHT22;17763;48.730;9.136;2023-04-24T12:59:56;10.20;91.90
31113;DHT22;17763;48.730;9.136;2023-04-24T13:02:22;10.20;92.40
31113;DHT22;17763;48.730;9.136;2023-04-24T13:04:50;10.20;92.90
31113;DHT22;17763;48.730;9.136;2023-04-24T13:07:16;10.30;94.30
31113;DHT22;17763;48.730;9.136;2023-04-24T13:09:42;10.30;93.60
31113;DHT22;17763;48.730;9.136;2023-04-24T13:12:08;10.10;95.30
31113;DHT22;17763;48.730;9.136;2023-04-24T13:14:34;10.10;96.90
31113;DHT22;17763;48.730;9.136;2023-04-24T13:17:00;10.00;98.80
31113;DHT22;17763;48.730;9.136;2023-04-24T13:19:26;10.00;99.90
31113;DHT22;17763;48.730;9.136;2023-04-24T13:21:52;10.00;99.90
31113;DHT22;17763;48.730;9.136;2023-04-24T13:24:18;10.20;99.90
31113;DHT22;17763;48.730;9.136;2023-04-24T13:26:44;10.30;99.90
31113;DHT22;17763;48.730;9.136;2023-04-24T13:29:09;10.50;99.90
31113;DHT22;17763;48.730;9.136;2023-04-24T13:31:37;10.80;99.90
31113;DHT22;17763;48.730;9.136;2023-04-24T13:34:03;10.80;99.50
31113;DHT22;17763;48.730;9.136;2023-04-24T13:36:29;10.80;99.10
31113;DHT22;17763;48.730;9.136;2023-04-24T13:38:55;10.70;98.20
31113;DHT22;17763;48.730;9.136;2023-04-24T13:41:21;10.60;98.80
31113;DHT22;17763;48.730;9.136;2023-04-24T13:43:46;10.60;98.50
31113;DHT22;17763;48.730;9.136;2023-04-24T13:46:12;10.60;99.00
31113;DHT22;17763;48.730;9.136;2023-04-24T13:48:38;10.40;99.90
31113;DHT22;17763;48.730;9.136;2023-04-24T13:51:03;10.40;99.90
31113;DHT22;17763;48.730;9.136;2023-04-24T13:53:29;10.40;99.90
31113;DHT22;17763;48.730;9.136;2023-04-24T13:55:55;10.30;99.90
31113;DHT22;17763;48.730;9.136;2023-04-24T13:58:21;10.30;99.90
31113;DHT22;17763;48.730;9.136;2023-04-24T14:00:46;10.40;99.90
31113;DHT22;17763;48.730;9.136;2023-04-24T14:03:12;10.40;99.90
31113;DHT22;17763;48.730;9.136;2023-04-24T14:05:38;10.70;99.90
31113;DHT22;17763;48.730;9.136;2023-04-24T14:08:03;10.80;99.90
31113;DHT22;17763;48.730;9.136;2023-04-24T14:10:29;11.00;99.90
31113;DHT22;17763;48.730;9.136;2023-04-24T14:12:55;11.10;99.90
31113;DHT22;17763;48.730;9.136;2023-04-24T14:15:20;11.00;99.90
31113;DHT22;17763;48.730;9.136;2023-04-24T14:17:47;10.70;99.90
31113;DHT22;17763;48.730;9.136;2023-04-24T14:20:12;10.60;99.90
31113;DHT22;17763;48.730;9.136;2023-04-24T14:22:38;10.40;99.90
31113;DHT22;17763;48.730;9.136;2023-04-24T14:25:04;10.20;99.90
31113;DHT22;17763;48.730;9.136;2023-04-24T14:27:30;9.90;99.90
31113;DHT22;17763;48.730;9.136;2023-04-24T14:30:00;9.80;99.90
31113;DHT22;17763;48.730;9.136;2023-04-24T14:32:25;9.90;99.90
31113;DHT22;17763;48.730;9.136;2023-04-24T14:34:51;9.80;99.90
31113;DHT22;17763;48.730;9.136;2023-04-24T14:37:17;10.00;99.90
31113;DHT22;17763;48.730;9.136;2023-04-24T14:39:42;10.10;99.90
31113;DHT22;17763;48.730;9.136;2023-04-24T14:42:08;10.20;99.90
31113;DHT22;17763;48.730;9.136;2023-04-24T14:44:33;10.40;99.90
31113;DHT22;17763;48.730;9.136;2023-04-24T14:46:59;10.40;99.90
31113;DHT22;17763;48.730;9.136;2023-04-24T14:49:25;10.50;99.90
31113;DHT22;17763;48.730;9.136;2023-04-24T14:51:51;10.40;99.90
31113;DHT22;17763;48.730;9.136;2023-04-24T14:54:19;10.40;99.90
31113;DHT22;17763;48.730;9.136;2023-04-24T14:56:45;10.70;99.90
31113;DHT22;17763;48.730;9.136;2023-04-24T14:59:12;11.00;99.90
31113;DHT22;17763;48.730;9.136;2023-04-24T15:01:39;11.30;99.90
31113;DHT22;17763;48.730;9.136;2023-04-24T15:04:05;11.60;99.90
31113;DHT22;17763;48.730;9.136;2023-04-24T15:06:30;11.70;99.90
31113;DHT22;17763;48.730;9.136;2023-04-24T15:08:57;11.60;99.90
31113;DHT22;17763;48.730;9.136;2023-04-24T15:11:22;11.60;99.90
31113;DHT22;17763;48.730;9.136;2023-04-24T15:13:48;11.60;99.90
31113;DHT22;17763;48.730;9.136;2023-04-24T15:16:14;11.40;99.90
31113;DHT22;17763;48.730;9.136;2023-04-24T15:18:39;11.40;99.80
31113;DHT22;17763;48.730;9.136;2023-04-24T15:21:05;11.30;99.90
31113;DHT22;17763;48.730;9.136;2023-04-24T15:23:30;11.10;98.60
31113;DHT22;17763;48.730;9.136;2023-04-24T15:25:56;10.90;98.90
31113;DHT22;17763;48.730;9.136;2023-04-24T15:28:23;10.70;98.70
31113;DHT22;17763;48.730;9.136;2023-04-24T15:30:48;10.70;99.20
31113;DHT22;17763;48.730;9.136;2023-04-24T15:33:14;10.60;99.40
31113;DHT22;17763;48.730;9.136;2023-04-24T15:35:39;10.70;99.80